Time;durP1;ratioP1;P1;durP2;ratioP2;P2;SDS_P1;SDS_P2;PMS_P1;PMS_P2;Temp;Humidity;BMP_temperature;BMP_pressure;BME280_temperature;BME280_humidity;BME280_pressure;Samples;Min_cycle;Max_cycle;Signal;HPM_P1;HPM_P2
2021/07/12 16:01:09;;;;;;;7.50;6.90;;;26.80;97.20;;;;;;4143990;28;20446;-85
2021/07/12 16:03:16;;;;;;;7.97;7.17;;;26.80;97.00;;;;;;4151955;28;20489;-81
2021/07/12 16:05:20;;;;;;;7.17;6.60;;;26.90;97.10;;;;;;4152156;28;20466;-80
2021/07/12 16:07:23;;;;;;;6.50;6.00;;;26.80;97.20;;;;;;4150431;28;20530;-77
2021/07/12 16:09:26;;;;;;;7.67;6.97;;;26.70;98.00;;;;;;4150705;28;20471;-77
2021/07/12 16:11:28;;;;;;;6.40;5.90;;;26.50;98.30;;;;;;4148551;28;20501;-78
2021/07/12 16:13:31;;;;;;;7.83;7.13;;;26.40;98.30;;;;;;4148657;28;21035;-78
2021/07/12 16:15:35;;;;;;;6.70;6.20;;;26.30;98.30;;;;;;4150514;28;20530;-80
2021/07/12 16:17:38;;;;;;;7.03;6.53;;;26.30;98.30;;;;;;4150935;28;20979;-81
2021/07/12 16:19:43;;;;;;;7.30;6.60;;;26.30;98.30;;;;;;4150494;28;20476;-81
2021/07/12 16:21:45;;;;;;;7.80;7.10;;;26.20;98.30;;;;;;4145580;28;20466;-81
2021/07/12 16:23:48;;;;;;;7.73;7.23;;;26.20;98.30;;;;;;4147005;28;20637;-80
2021/07/12 16:25:51;;;;;;;7.83;7.17;;;26.10;98.30;;;;;;4147729;28;20507;-80
2021/07/12 16:27:55;;;;;;;7.10;6.60;;;26.10;98.30;;;;;;4144693;28;20470;-81
2021/07/12 16:29:58;;;;;;;7.70;6.93;;;26.20;98.30;;;;;;4144681;28;20463;-82
2021/07/12 16:32:02;;;;;;;7.20;6.60;;;26.20;98.30;;;;;;4145816;28;20466;-82
2021/07/12 16:34:05;;;;;;;7.33;6.70;;;26.20;98.30;;;;;;4145691;28;20496;-79
2021/07/12 16:36:11;;;;;;;8.60;7.03;;;26.10;98.30;;;;;;4149693;28;20553;-81
2021/07/12 16:38:18;;;;;;;7.17;6.57;;;26.20;98.30;;;;;;4145524;28;20489;-81
2021/07/12 16:40:21;;;;;;;7.67;7.07;;;26.20;98.30;;;;;;4146228;28;20463;-81
2021/07/12 16:42:26;;;;;;;8.40;7.70;;;26.20;98.30;;;;;;4143506;28;20838;-77
2021/07/12 16:44:28;;;;;;;8.93;8.03;;;26.10;98.30;;;;;;4138141;28;20958;-79
2021/07/12 16:46:32;;;;;;;8.50;7.70;;;26.20;98.30;;;;;;4137898;28;20828;-77
2021/07/12 16:48:34;;;;;;;7.77;7.17;;;26.20;98.30;;;;;;4141391;28;20471;-77
2021/07/12 16:50:37;;;;;;;7.93;7.33;;;26.20;98.30;;;;;;4141539;28;20478;-78
2021/07/12 16:52:42;;;;;;;8.30;7.60;;;26.10;98.30;;;;;;4139841;28;20465;-78
2021/07/12 16:54:45;;;;;;;8.40;7.70;;;26.10;98.30;;;;;;4139354;28;20963;-78
2021/07/12 16:56:48;;;;;;;8.63;7.83;;;25.90;98.30;;;;;;4138579;28;20478;-78
2021/07/12 16:58:52;;;;;;;8.97;8.13;;;25.80;98.30;;;;;;4137337;28;20523;-78
2021/07/12 17:00:54;;;;;;;8.33;7.73;;;26.00;98.30;;;;;;4139048;28;20482;-78
2021/07/12 17:02:57;;;;;;;10.17;8.43;;;26.20;98.30;;;;;;4135578;28;20501;-78
2021/07/12 17:05:01;;;;;;;7.83;7.23;;;26.30;98.30;;;;;;4140558;28;20479;-77
2021/07/12 17:07:04;;;;;;;8.80;8.10;;;26.10;98.30;;;;;;4139351;28;20502;-78
2021/07/12 17:09:09;;;;;;;9.17;8.47;;;26.30;98.30;;;;;;4137906;28;20524;-78
2021/07/12 17:11:11;;;;;;;8.20;7.50;;;26.40;98.30;;;;;;4140087;28;20852;-78
2021/07/12 17:13:14;;;;;;;8.83;8.10;;;26.30;98.30;;;;;;4139505;28;20542;-78
2021/07/12 17:15:18;;;;;;;13.20;8.53;;;26.20;98.30;;;;;;4138708;28;20962;-78
2021/07/12 17:17:23;;;;;;;8.20;7.60;;;26.10;98.30;;;;;;4138001;28;20498;-78
2021/07/12 17:19:26;;;;;;;8.70;7.80;;;26.10;98.30;;;;;;4138914;28;20488;-78
2021/07/12 17:21:29;;;;;;;8.80;7.90;;;26.10;98.30;;;;;;4139277;28;20476;-78
2021/07/12 17:23:32;;;;;;;8.63;7.93;;;26.20;98.30;;;;;;4138702;28;20494;-78
2021/07/12 17:25:36;;;;;;;8.53;7.83;;;26.20;98.30;;;;;;4140102;28;20470;-79
2021/07/12 17:27:39;;;;;;;8.60;7.90;;;26.20;98.30;;;;;;4139612;28;20498;-79
2021/07/12 17:29:42;;;;;;;8.80;8.00;;;26.20;98.30;;;;;;4139215;28;20479;-79
2021/07/12 17:33:57;;;;;;;7.97;7.30;;;26.10;98.30;;;;;;4799112;23;20837;-80
2021/07/12 17:37:25;;;;;;;8.60;7.90;;;26.10;98.30;;;;;;4082627;29;20518;-83
2021/07/12 17:45:35;;;;;;;9.00;8.30;;;26.20;98.30;;;;;;4035079;29;20525;-82
2021/07/12 21:23:45;;;;;;;10.40;9.33;;;22.80;98.30;;;;;;4054700;29;21030;-82
2021/07/12 21:25:50;;;;;;;10.60;9.50;;;22.80;98.30;;;;;;4091854;28;20560;-81
2021/07/12 21:28:00;;;;;;;11.33;10.40;;;22.80;98.30;;;;;;4152210;28;20496;-82
2021/07/12 21:30:07;;;;;;;10.97;9.87;;;22.90;98.30;;;;;;4151372;28;20469;-81
2021/07/12 21:32:10;;;;;;;13.50;10.60;;;22.80;98.30;;;;;;4147353;28;20576;-81
2021/07/12 21:34:14;;;;;;;11.00;10.10;;;22.80;98.30;;;;;;4150551;28;20466;-81
